Time;durP1;ratioP1;P1;durP2;ratioP2;P2;SDS_P1;SDS_P2;PMS_P1;PMS_P2;Temp;Humidity;BMP_temperature;BMP_pressure;BME280_temperature;BME280_humidity;BME280_pressure;Samples;Min_cycle;Max_cycle;Signal;HPM_P1;HPM_P2
2022/11/24 00:01:56;;;;;;;22.80;11.43;;;;;;;;;;5078545;28;20047;-84
2022/11/24 00:04:41;;;;;;;24.48;11.00;;;;;;;;;;5094137;28;20081;-85
2022/11/24 00:07:25;;;;;;;27.38;11.73;;;;;;;;;;5093498;28;20101;-83
2022/11/24 00:10:10;;;;;;;20.55;11.18;;;;;;;;;;5093363;28;20511;-84
2022/11/24 00:12:54;;;;;;;29.63;12.07;;;;;;;;;;5078428;28;20039;-83
2022/11/24 00:15:39;;;;;;;23.38;11.32;;;;;;;;;;5093722;28;20400;-84
2022/11/24 00:18:23;;;;;;;27.98;11.63;;;;;;;;;;5077880;28;20048;-84
2022/11/24 00:21:08;;;;;;;26.85;11.15;;;;;;;;;;5093313;28;20043;-84
2022/11/24 00:23:53;;;;;;;26.42;11.13;;;;;;;;;;5093437;28;20529;-84
2022/11/24 00:26:38;;;;;;;23.88;11.05;;;;;;;;;;5093535;28;20105;-84
2022/11/24 00:29:23;;;;;;;30.05;11.73;;;;;;;;;;5093072;28;20097;-83
2022/11/24 00:32:07;;;;;;;29.92;10.23;;;;;;;;;;5093177;28;20085;-85
2022/11/24 00:34:52;;;;;;;28.55;11.45;;;;;;;;;;5063859;28;20050;-84
2022/11/24 00:37:37;;;;;;;31.05;9.82;;;;;;;;;;5093065;28;20388;-84
2022/11/24 00:40:21;;;;;;;32.10;10.85;;;;;;;;;;5077568;28;20141;-84
2022/11/24 00:43:06;;;;;;;27.25;10.20;;;;;;;;;;5077834;28;20035;-84
2022/11/24 00:45:50;;;;;;;30.83;10.82;;;;;;;;;;5078125;28;20555;-84
2022/11/24 00:48:35;;;;;;;29.48;9.50;;;;;;;;;;5078067;28;20043;-84
2022/11/24 00:51:22;;;;;;;33.22;11.00;;;6.90;99.90;;;;;;5092587;28;20085;-83
2022/11/24 00:54:07;;;;;;;23.92;9.75;;;;;;;;;;5077691;28;20035;-84
2022/11/24 00:56:51;;;;;;;33.40;9.65;;;;;;;;;;5063427;28;20038;-84
2022/11/24 00:59:36;;;;;;;33.85;8.25;;;;;;;;;;5092654;28;20511;-83
2022/11/24 01:02:20;;;;;;;36.47;8.63;;;;;;;;;;5077180;28;20491;-83
2022/11/24 01:05:04;;;;;;;26.85;8.65;;;6.90;99.90;;;;;;5077430;28;20039;-83
2022/11/24 01:07:49;;;;;;;27.65;7.80;;;;;;;;;;5077301;28;20088;-84
2022/11/24 01:10:34;;;;;;;34.97;9.50;;;;;;;;;;5092090;28;20043;-84
2022/11/24 01:13:18;;;;;;;22.98;7.97;;;;;;;;;;5075516;28;20059;-84
2022/11/24 01:16:02;;;;;;;30.38;9.07;;;;;;;;;;5070834;28;20079;-84
2022/11/24 01:18:47;;;;;;;29.27;8.15;;;;;;;;;;5086530;28;20105;-84
2022/11/24 01:21:32;;;;;;;25.20;7.80;;;;;;;;;;5105835;28;20491;-84
2022/11/24 01:24:17;;;;;;;28.70;7.55;;;;;;;;;;5105714;28;20043;-85
2022/11/24 01:27:01;;;;;;;26.77;7.85;;;;;;;;;;5091362;28;20043;-84
2022/11/24 01:29:45;;;;;;;32.75;7.53;;;;;;;;;;5091295;28;20043;-84
2022/11/24 01:32:32;;;;;;;26.70;6.30;;;;;;;;;;5091148;28;20111;-84
2022/11/24 01:35:16;;;;;;;29.33;8.18;;;;;;;;;;5090696;28;20039;-85
2022/11/24 01:38:01;;;;;;;39.15;8.38;;;;;;;;;;5105856;28;20039;-84
2022/11/24 01:40:45;;;;;;;22.08;6.43;;;;;;;;;;5092478;28;20115;-84
2022/11/24 01:43:30;;;;;;;29.60;7.50;;;;;;;;;;5091918;28;20093;-84
2022/11/24 01:46:31;;;;;;;30.02;6.53;;;6.90;99.90;;;;;;5092425;28;20067;-84
2022/11/24 01:49:33;;;;;;;24.25;7.80;;;6.90;99.90;;;;;;5077017;28;20035;-84
2022/11/24 01:52:40;;;;;;;39.28;7.80;;;7.00;99.90;;;;;;5076969;28;20035;-84
2022/11/24 01:55:29;;;;;;;27.92;6.88;;;6.90;99.90;;;;;;5076540;28;20043;-84
2022/11/24 01:58:20;;;;;;;30.88;8.40;;;7.00;99.90;;;;;;5077218;28;20495;-84
2022/11/24 02:01:05;;;;;;;24.20;6.60;;;;;;;;;;5090213;28;20437;-84
2022/11/24 02:03:50;;;;;;;33.08;8.30;;;7.10;99.90;;;;;;5092268;28;20043;-84
2022/11/24 02:06:35;;;;;;;23.05;5.50;;;7.00;99.90;;;;;;5080414;28;20597;-84
2022/11/24 02:09:42;;;;;;;32.67;7.43;;;7.10;99.90;;;;;;5091690;28;20119;-86
2022/11/24 02:12:26;;;;;;;29.45;7.75;;;;;;;;;;5105121;28;20090;-84
2022/11/24 02:15:11;;;;;;;26.70;5.65;;;;;;;;;;5090930;28;20170;-84
2022/11/24 02:17:57;;;;;;;21.08;4.75;;;7.00;99.90;;;;;;5092045;28;20499;-83
2022/11/24 02:20:42;;;;;;;26.90;6.35;;;;;;;;;;5078373;28;20046;-84
2022/11/24 02:23:43;;;;;;;22.52;5.32;;;7.00;99.90;;;;;;5095552;28;20046;-84
2022/11/24 02:26:44;;;;;;;34.10;6.45;;;6.90;99.90;;;;;;5080123;28;20442;-84
2022/11/24 02:29:29;;;;;;;23.73;5.03;;;;;;;;;;5108782;28;20093;-85
2022/11/24 02:32:15;;;;;;;24.98;5.15;;;6.90;99.90;;;;;;5109269;28;20601;-84
2022/11/24 02:35:01;;;;;;;32.85;4.82;;;6.90;99.90;;;;;;5095528;28;20491;-84
2022/11/24 02:37:45;;;;;;;28.23;5.15;;;;;;;;;;5095253;28;20120;-84
2022/11/24 02:40:30;;;;;;;19.17;5.20;;;;;;;;;;5108828;28;20039;-84
2022/11/24 02:43:20;;;;;;;25.20;5.25;;;6.80;99.90;;;;;;5095371;28;20040;-84
2022/11/24 02:46:04;;;;;;;25.45;5.70;;;;;;;;;;5095502;28;20552;-84
2022/11/24 02:48:49;;;;;;;34.55;5.65;;;;;;;;;;5093655;28;20511;-84
2022/11/24 02:51:33;;;;;;;26.48;4.97;;;;;;;;;;5094973;28;20047;-84
2022/11/24 02:54:18;;;;;;;21.77;5.13;;;;;;;;;;5096785;28;20043;-84
2022/11/24 02:57:03;;;;;;;19.90;5.55;;;;;;;;;;5095222;28;20031;-84
2022/11/24 02:59:48;;;;;;;27.85;5.15;;;;;;;;;;5094655;28;20400;-84
2022/11/24 03:02:32;;;;;;;27.45;5.70;;;;;;;;;;5094870;28;20050;-84
2022/11/24 03:05:17;;;;;;;21.58;5.40;;;;;;;;;;5108360;28;20046;-84
2022/11/24 03:08:02;;;;;;;34.70;6.72;;;6.70;99.90;;;;;;5108445;28;20460;-84
2022/11/24 03:10:47;;;;;;;28.35;5.97;;;;;;;;;;5094492;28;20042;-84
2022/11/24 03:13:32;;;;;;;35.80;6.75;;;6.60;99.90;;;;;;5093255;28;20606;-84
2022/11/24 03:16:17;;;;;;;30.85;5.38;;;;;;;;;;5079572;28;20123;-83
2022/11/24 03:19:01;;;;;;;27.92;5.30;;;;;;;;;;5108234;28;20563;-84
2022/11/24 03:21:46;;;;;;;24.35;6.07;;;;;;;;;;5107821;28;20107;-84
2022/11/24 03:24:30;;;;;;;32.13;7.15;;;;;;;;;;5107893;28;20128;-86
2022/11/24 03:27:15;;;;;;;29.40;5.43;;;;;;;;;;5108122;28;20115;-84
2022/11/24 03:29:59;;;;;;;28.30;5.38;;;;;;;;;;5108071;28;20039;-84
2022/11/24 03:32:44;;;;;;;23.63;4.70;;;;;;;;;;5106735;28;20055;-84
2022/11/24 03:35:28;;;;;;;24.17;4.75;;;;;;;;;;5093498;28;20106;-83
2022/11/24 03:38:13;;;;;;;25.00;4.70;;;;;;;;;;5107771;28;20097;-84
2022/11/24 03:40:57;;;;;;;25.80;6.65;;;;;;;;;;5107619;28;20067;-84
2022/11/24 03:43:42;;;;;;;30.02;4.60;;;;;;;;;;5092712;28;20048;-84
2022/11/24 03:46:26;;;;;;;24.75;4.88;;;;;;;;;;5094479;28;20047;-84
2022/11/24 03:49:11;;;;;;;25.52;4.35;;;;;;;;;;5094339;28;20043;-84
2022/11/24 03:51:55;;;;;;;22.42;4.15;;;;;;;;;;5107095;28;20541;-84
2022/11/24 03:54:41;;;;;;;26.52;5.13;;;;;;;;;;5093782;28;20047;-84
2022/11/24 03:57:25;;;;;;;33.20;5.93;;;;;;;;;;5107705;28;20088;-83
2022/11/24 04:00:11;;;;;;;27.45;4.53;;;7.20;99.90;;;;;;5093799;28;20055;-84
2022/11/24 04:02:55;;;;;;;22.65;6.93;;;;;;;;;;5078332;28;20312;-84
2022/11/24 04:05:40;;;;;;;25.20;4.35;;;;;;;;;;5093481;28;20089;-84
2022/11/24 04:08:24;;;;;;;19.02;3.95;;;;;;;;;;5107439;28;20560;-84
2022/11/24 04:12:42;;;;;;;29.02;4.05;;;;;;;;;;5092949;28;20113;-84
2022/11/24 04:14:13;;;;;;;;;;;6.90;99.90;;;;;;5104714;28;20115;-83
2022/11/24 04:16:57;;;;;;;24.83;4.38;;;6.80;99.90;;;;;;5093391;28;19957;-84
2022/11/24 04:19:42;;;;;;;23.50;4.47;;;;;;;;;;5077898;28;20035;-84
2022/11/24 04:22:27;;;;;;;23.02;4.10;;;;;;;;;;5093699;28;20089;-84
2022/11/24 04:25:11;;;;;;;19.00;4.53;;;;;;;;;;5107031;28;20046;-83
2022/11/24 04:27:56;;;;;;;23.30;4.07;;;;;;;;;;5106449;28;20495;-83
2022/11/24 04:30:43;;;;;;;19.25;3.85;;;;;;;;;;5093091;28;20388;-85
2022/11/24 04:33:28;;;;;;;27.27;4.75;;;;;;;;;;5106279;28;20035;-83
2022/11/24 04:36:12;;;;;;;21.42;4.68;;;;;;;;;;5093368;28;20058;-84
2022/11/24 04:38:57;;;;;;;23.00;3.42;;;;;;;;;;5092941;28;20100;-83
2022/11/24 04:41:42;;;;;;;21.17;3.50;;;;;;;;;;5106178;28;20046;-85
2022/11/24 04:44:26;;;;;;;16.45;4.05;;;;;;;;;;5091987;28;20530;-84
2022/11/24 04:47:20;;;;;;;16.17;4.20;;;6.80;99.90;;;;;;5106482;28;20039;-83
2022/11/24 04:50:06;;;;;;;27.73;4.25;;;6.80;99.90;;;;;;5092587;28;20082;-84
2022/11/24 04:52:51;;;;;;;21.58;5.13;;;;;;;;;;5077412;28;20043;-84
2022/11/24 04:55:38;;;;;;;24.08;4.15;;;6.80;99.90;;;;;;5092795;28;20066;-84
2022/11/24 04:58:23;;;;;;;28.52;4.20;;;;;;;;;;5077655;28;20039;-83
2022/11/24 05:01:07;;;;;;;22.10;3.40;;;6.70;99.90;;;;;;5079850;28;20090;-84
2022/11/24 05:03:53;;;;;;;13.98;3.58;;;6.60;99.90;;;;;;5092411;28;20084;-84
2022/11/24 05:06:37;;;;;;;24.70;4.47;;;;;;;;;;5093072;28;20079;-84
2022/11/24 05:09:22;;;;;;;23.05;3.47;;;;;;;;;;5106381;28;20137;-84
2022/11/24 05:12:07;;;;;;;24.58;3.75;;;;;;;;;;5105641;28;20412;-83
2022/11/24 05:14:51;;;;;;;19.63;3.65;;;;;;;;;;5092259;28;20449;-84
2022/11/24 05:17:37;;;;;;;22.08;3.72;;;6.50;99.90;;;;;;5106000;28;20043;-84
2022/11/24 05:20:22;;;;;;;19.20;3.65;;;;;;;;;;5077499;28;20039;-84
2022/11/24 05:23:07;;;;;;;25.35;6.38;;;6.40;99.90;;;;;;5092161;28;20039;-84
2022/11/24 05:25:52;;;;;;;16.27;3.72;;;;;;;;;;5092319;28;20416;-84
2022/11/24 05:28:37;;;;;;;21.02;4.07;;;;;;;;;;5092672;28;20089;-83
2022/11/24 05:31:21;;;;;;;20.23;4.13;;;;;;;;;;5092714;28;20039;-84
2022/11/24 05:34:06;;;;;;;32.30;4.22;;;;;;;;;;5091049;28;20043;-84
2022/11/24 05:36:51;;;;;;;20.17;5.65;;;;;;;;;;5105454;28;20412;-84
2022/11/24 05:39:36;;;;;;;23.88;3.70;;;;;;;;;;5105905;28;20453;-84
2022/11/24 05:42:39;;;;;;;16.08;3.75;;;;;;;;;;5092739;28;20081;-84
2022/11/24 05:45:23;;;;;;;20.25;4.85;;;;;;;;;;5105804;28;20057;-84
2022/11/24 05:48:10;;;;;;;20.77;4.25;;;6.30;99.90;;;;;;5105384;28;20549;-84
2022/11/24 05:50:56;;;;;;;23.98;5.60;;;6.30;99.90;;;;;;5076817;28;20130;-84
2022/11/24 05:53:41;;;;;;;18.13;3.55;;;;;;;;;;5076953;28;20042;-83
2022/11/24 05:56:25;;;;;;;20.08;4.18;;;;;;;;;;5109307;28;20047;-84
2022/11/24 05:59:10;;;;;;;33.92;5.70;;;;;;;;;;5109470;28;20081;-83
2022/11/24 06:01:54;;;;;;;28.23;4.05;;;;;;;;;;5088685;28;20110;-84
2022/11/24 06:04:39;;;;;;;19.08;4.03;;;;;;;;;;5076184;28;20094;-83
2022/11/24 06:07:23;;;;;;;18.42;3.20;;;;;;;;;;5074869;28;20424;-84
2022/11/24 06:10:08;;;;;;;18.60;4.32;;;6.40;99.90;;;;;;5103172;28;20055;-84
2022/11/24 06:12:52;;;;;;;21.42;3.90;;;;;;;;;;5103574;28;20060;-84
2022/11/24 06:15:39;;;;;;;13.75;3.67;;;;;;;;;;5074633;28;20067;-84
2022/11/24 06:18:23;;;;;;;26.30;5.35;;;;;;;;;;5076001;28;20089;-84
2022/11/24 06:21:08;;;;;;;21.40;3.58;;;;;;;;;;5088383;28;20059;-84
2022/11/24 06:23:53;;;;;;;21.40;3.83;;;;;;;;;;5074682;28;20035;-84
2022/11/24 06:26:37;;;;;;;22.63;4.60;;;;;;;;;;5075559;28;20067;-83
2022/11/24 06:29:21;;;;;;;25.90;4.45;;;;;;;;;;5088875;28;20046;-83
2022/11/24 06:32:06;;;;;;;22.35;3.92;;;;;;;;;;5075131;28;20118;-84
2022/11/24 06:34:51;;;;;;;17.42;3.78;;;;;;;;;;5075271;28;20081;-84
2022/11/24 06:37:36;;;;;;;17.65;3.50;;;;;;;;;;5074472;28;20488;-84
2022/11/24 06:40:21;;;;;;;20.67;3.60;;;;;;;;;;5074794;28;20047;-84
2022/11/24 06:43:05;;;;;;;18.80;3.67;;;;;;;;;;5088212;28;20078;-84
2022/11/24 06:45:52;;;;;;;13.23;3.78;;;6.40;99.90;;;;;;5074275;28;20105;-83
2022/11/24 06:48:37;;;;;;;16.75;3.58;;;;;;;;;;5102873;28;20090;-84
2022/11/24 06:51:21;;;;;;;27.13;4.15;;;;;;;;;;5073773;28;20403;-84
2022/11/24 06:54:06;;;;;;;14.77;3.45;;;;;;;;;;5074788;28;20490;-84
2022/11/24 06:56:58;;;;;;;18.67;3.63;;;6.50;99.90;;;;;;5073973;28;20075;-84
2022/11/24 06:59:43;;;;;;;26.20;5.18;;;;;;;;;;5075010;28;20104;-84
2022/11/24 07:02:28;;;;;;;12.77;3.67;;;;;;;;;;5074872;28;20067;-84
2022/11/24 07:05:12;;;;;;;20.33;5.20;;;;;;;;;;5087624;28;20083;-85
2022/11/24 07:07:59;;;;;;;19.85;4.00;;;6.50;99.90;;;;;;5072656;28;20094;-84
2022/11/24 07:10:44;;;;;;;24.80;3.22;;;;;;;;;;5074761;28;20587;-84
2022/11/24 07:13:28;;;;;;;25.73;4.13;;;;;;;;;;5074746;28;20392;-83
2022/11/24 07:16:22;;;;;;;19.00;3.90;;;6.60;99.90;;;;;;5101870;28;20078;-84
2022/11/24 07:19:06;;;;;;;18.25;3.80;;;;;;;;;;5074219;28;20082;-84
2022/11/24 07:21:51;;;;;;;33.08;5.07;;;;;;;;;;5073639;28;20134;-84
2022/11/24 07:24:35;;;;;;;22.20;4.75;;;;;;;;;;5073539;28;20123;-84
2022/11/24 07:27:20;;;;;;;28.33;3.95;;;;;;;;;;5087358;28;20405;-83
2022/11/24 07:30:04;;;;;;;19.40;3.70;;;6.50;99.90;;;;;;5087149;28;20599;-85
2022/11/24 07:32:49;;;;;;;22.13;4.68;;;;;;;;;;5087741;28;20507;-84
2022/11/24 07:35:33;;;;;;;14.38;4.32;;;;;;;;;;5074271;28;20442;-84
2022/11/24 07:38:18;;;;;;;21.23;4.68;;;;;;;;;;5101429;28;20043;-84
2022/11/24 07:41:10;;;;;;;22.90;4.07;;;6.60;99.90;;;;;;5073252;28;20040;-84
2022/11/24 07:43:55;;;;;;;30.50;4.55;;;;;;;;;;5073192;28;20035;-84
2022/11/24 07:46:39;;;;;;;21.08;5.15;;;;;;;;;;5073015;28;20055;-84
2022/11/24 07:49:24;;;;;;;24.60;4.68;;;6.50;99.90;;;;;;5073685;28;20545;-84
2022/11/24 07:52:09;;;;;;;32.00;5.00;;;;;;;;;;5072485;28;20085;-84
2022/11/24 07:54:54;;;;;;;19.48;4.32;;;;;;;;;;5073029;28;20090;-84
2022/11/24 07:57:39;;;;;;;18.38;4.55;;;;;;;;;;5087320;28;20127;-84
2022/11/24 08:00:24;;;;;;;20.67;4.78;;;;;;;;;;5078123;28;20051;-84
2022/11/24 08:03:10;;;;;;;24.15;4.88;;;;;;;;;;5093760;28;20097;-84
2022/11/24 08:05:55;;;;;;;24.10;6.05;;;;;;;;;;5093991;28;20105;-84
2022/11/24 08:08:40;;;;;;;23.50;6.32;;;;;;;;;;5092661;28;20046;-85
2022/11/24 08:11:25;;;;;;;28.50;5.90;;;;;;;;;;5106922;28;20404;-84
2022/11/24 08:14:09;;;;;;;24.15;5.25;;;;;;;;;;5107058;28;20153;-83
2022/11/24 08:16:54;;;;;;;20.25;5.97;;;;;;;;;;5107131;28;20108;-84
2022/11/24 08:19:38;;;;;;;22.65;5.43;;;;;;;;;;5092363;28;20039;-83
2022/11/24 08:22:23;;;;;;;19.80;5.78;;;;;;;;;;5092165;28;20043;-84
2022/11/24 08:25:07;;;;;;;26.73;7.47;;;7.00;99.90;;;;;;5093625;28;20093;-84
2022/11/24 08:27:52;;;;;;;19.02;6.80;;;7.00;99.90;;;;;;5106847;28;20555;-84
2022/11/24 08:30:37;;;;;;;24.42;6.00;;;;;;;;;;5093503;28;20172;-84
2022/11/24 08:33:21;;;;;;;22.85;6.38;;;;;;;;;;5091904;28;20043;-84
2022/11/24 08:36:14;;;;;;;20.98;5.70;;;7.20;99.90;;;;;;5106724;28;20051;-84
2022/11/24 08:38:59;;;;;;;21.63;7.43;;;7.20;99.90;;;;;;5106733;28;20035;-84
2022/11/24 08:41:44;;;;;;;24.67;6.20;;;;;;;;;;5093347;28;20070;-84
2022/11/24 08:44:28;;;;;;;15.20;5.40;;;;;;;;;;5091691;28;20085;-84
2022/11/24 08:47:13;;;;;;;16.50;5.82;;;;;;;;;;5092286;28;20092;-84
2022/11/24 08:49:57;;;;;;;16.05;6.13;;;;;;;;;;5077740;28;20031;-84
2022/11/24 08:52:42;;;;;;;21.88;6.25;;;;;;;;;;5093076;28;20046;-84
2022/11/24 08:55:27;;;;;;;22.10;5.15;;;;;;;;;;5092516;28;20491;-84
2022/11/24 08:58:13;;;;;;;22.50;6.43;;;;;;;;;;5093285;28;20110;-84
2022/11/24 09:01:10;;;;;;;16.40;5.00;;;7.60;99.90;;;;;;5106222;28;20511;-84
2022/11/24 09:03:54;;;;;;;14.65;5.13;;;;;;;;;;5106335;28;20387;-84
2022/11/24 09:06:39;;;;;;;13.52;4.03;;;;;;;;;;5105997;28;20400;-84
2022/11/24 09:09:23;;;;;;;15.90;4.47;;;;;;;;;;5091395;28;20031;-83
2022/11/24 09:12:08;;;;;;;16.27;6.03;;;7.80;99.90;;;;;;5106099;28;20039;-84
2022/11/24 09:14:53;;;;;;;11.73;4.05;;;;;;;;;;5077431;28;20074;-85
2022/11/24 09:17:38;;;;;;;8.85;4.75;;;;;;;;;;5092298;28;20079;-83
2022/11/24 09:20:22;;;;;;;8.98;3.80;;;;;;;;;;5096621;28;20090;-84
2022/11/24 09:23:07;;;;;;;14.18;4.20;;;;;;;;;;5090227;28;20035;-84
2022/11/24 09:25:51;;;;;;;13.38;3.80;;;;;;;;;;5106183;28;20092;-84
2022/11/24 09:28:36;;;;;;;12.48;4.30;;;;;;;;;;5091139;28;20039;-83
2022/11/24 09:31:24;;;;;;;15.80;4.72;;;8.20;99.90;;;;;;5091765;28;20042;-86
2022/11/24 09:34:13;;;;;;;10.73;4.32;;;8.20;99.90;;;;;;5077312;28;20079;-84
2022/11/24 09:36:58;;;;;;;11.02;4.18;;;;;;;;;;5092419;28;20123;-84
2022/11/24 09:39:42;;;;;;;9.95;3.33;;;;;;;;;;5105432;28;20051;-85
2022/11/24 09:42:40;;;;;;;12.38;3.90;;;8.20;99.90;;;;;;5092132;28;20043;-84
2022/11/24 09:45:42;;;;;;;13.07;3.63;;;8.40;99.90;;;;;;5091971;28;20051;-86
2022/11/24 09:48:35;;;;;;;9.50;3.50;;;8.40;99.90;;;;;;5091977;28;20067;-83
2022/11/24 09:51:24;;;;;;;8.15;3.08;;;8.50;99.90;;;;;;5077216;28;20442;-84
2022/11/24 09:54:14;;;;;;;10.35;3.20;;;8.50;99.90;;;;;;5092486;28;20081;-84
2022/11/24 09:57:02;;;;;;;8.45;3.20;;;8.50;99.90;;;;;;5077049;28;20043;-84
2022/11/24 09:59:47;;;;;;;7.05;3.20;;;;;;;;;;5091993;28;20039;-84
2022/11/24 10:02:32;;;;;;;10.55;3.22;;;;;;;;;;5090685;28;20515;-84
2022/11/24 10:05:17;;;;;;;8.25;2.75;;;;;;;;;;5092062;28;20075;-84
2022/11/24 10:08:26;;;;;;;6.32;2.80;;;8.60;99.90;;;;;;5105552;28;20152;-84
2022/11/24 10:11:13;;;;;;;8.85;2.38;;;8.70;99.90;;;;;;5064103;28;20089;-84
2022/11/24 10:13:58;;;;;;;11.10;3.05;;;;;;;;;;5076793;28;20030;-84
2022/11/24 10:16:42;;;;;;;6.00;2.78;;;;;;;;;;5091596;28;20042;-84
2022/11/24 10:19:44;;;;;;;5.95;2.35;;;8.80;99.90;;;;;;5104838;28;20043;-87
2022/11/24 10:22:47;;;;;;;8.00;2.30;;;8.80;99.90;;;;;;5091718;28;20039;-85
2022/11/24 10:25:55;;;;;;;9.40;3.38;;;8.90;99.90;;;;;;5080982;28;20589;-84
2022/11/24 10:28:49;;;;;;;9.05;3.22;;;8.90;99.90;;;;;;5105024;28;20111;-84
2022/11/24 10:31:41;;;;;;;6.05;2.35;;;8.80;99.90;;;;;;5076181;28;20035;-84
2022/11/24 10:34:33;;;;;;;7.63;2.70;;;8.80;99.90;;;;;;5091980;28;20093;-84
2022/11/24 10:37:27;;;;;;;6.97;2.72;;;9.10;99.90;;;;;;5080207;28;20499;-84
2022/11/24 10:40:15;;;;;;;;;;;8.90;99.90;;;;;;5092201;28;20065;-84
2022/11/24 10:43:00;;;;;;;6.13;2.60;;;;;;;;;;5095602;28;19915;-84
2022/11/24 10:45:45;;;;;;;8.05;2.40;;;;;;;;;;5095096;28;20066;-84
2022/11/24 10:48:39;;;;;;;8.82;3.20;;;8.80;99.90;;;;;;5095255;28;20051;-84
2022/11/24 10:51:29;;;;;;;8.48;3.50;;;8.80;99.90;;;;;;5080162;28;20553;-84
2022/11/24 10:54:22;;;;;;;7.43;3.17;;;8.80;99.90;;;;;;5108809;28;20136;-82
2022/11/24 10:57:06;;;;;;;7.00;3.00;;;;;;;;;;5079732;28;20057;-82
2022/11/24 10:59:51;;;;;;;8.32;3.10;;;;;;;;;;5094827;28;20047;-82
2022/11/24 11:02:38;;;;;;;9.18;3.10;;;9.00;99.90;;;;;;5108378;28;20039;-82
2022/11/24 11:05:40;;;;;;;9.63;3.60;;;9.00;99.90;;;;;;5080052;28;20043;-82
2022/11/24 11:08:28;;;;;;;8.90;3.70;;;9.00;99.90;;;;;;5108626;28;20090;-82
2022/11/24 11:11:15;;;;;;;9.68;3.42;;;;;;;;;;5079815;28;20101;-82
2022/11/24 11:14:02;;;;;;;11.35;3.80;;;9.10;99.90;;;;;;5094952;28;20437;-84
2022/11/24 11:16:52;;;;;;;7.13;3.20;;;9.00;99.90;;;;;;5079214;28;20086;-84
2022/11/24 11:19:46;;;;;;;10.85;4.13;;;9.20;99.90;;;;;;5107808;28;20110;-85
2022/11/24 11:22:34;;;;;;;10.88;3.70;;;9.20;99.90;;;;;;5094810;28;20471;-84
2022/11/24 11:25:30;;;;;;;7.70;4.05;;;9.30;99.90;;;;;;5094740;28;20043;-82
2022/11/24 11:28:28;;;;;;;8.48;4.00;;;9.40;99.90;;;;;;5094510;28;20035;-82
2022/11/24 11:31:19;;;;;;;10.00;3.95;;;9.40;99.90;;;;;;5094518;28;20039;-82
2022/11/24 11:34:09;;;;;;;7.93;3.58;;;9.50;99.90;;;;;;5079272;28;20062;-82
2022/11/24 11:36:55;;;;;;;8.10;3.80;;;;;;;;;;5093923;28;20545;-82
2022/11/24 11:39:41;;;;;;;10.30;3.40;;;9.60;99.90;;;;;;5094186;28;20042;-83
2022/11/24 11:42:32;;;;;;;9.73;3.58;;;9.60;99.90;;;;;;5079333;28;20450;-82
2022/11/24 11:45:21;;;;;;;16.92;4.03;;;9.70;99.90;;;;;;5094185;28;20109;-82
2022/11/24 11:48:18;;;;;;;11.63;3.40;;;9.80;99.90;;;;;;5079148;28;20077;-82
2022/11/24 11:51:14;;;;;;;11.15;3.72;;;9.80;99.90;;;;;;5107314;28;20470;-82
2022/11/24 11:54:08;;;;;;;9.73;3.42;;;10.50;99.90;;;;;;5106385;28;20082;-82
2022/11/24 11:57:09;;;;;;;12.68;4.22;;;10.00;99.90;;;;;;5093634;28;20061;-82
2022/11/24 12:00:03;;;;;;;13.10;3.72;;;;;;;;;;5093593;28;20043;-82
2022/11/24 12:03:35;;;;;;;14.15;4.57;;;10.00;99.90;;;;;;5093850;28;20062;-83
2022/11/24 12:06:20;;;;;;;16.30;4.50;;;;;;;;;;5061814;28;20043;-82
2022/11/24 12:09:14;;;;;;;6.38;3.08;;;;;;;;;;5093320;28;20066;-82
2022/11/24 12:12:23;;;;;;;12.23;3.95;;;10.10;99.90;;;;;;5106862;28;20039;-85
2022/11/24 12:15:41;;;;;;;17.60;3.42;;;10.10;99.90;;;;;;5107356;28;20123;-84
2022/11/24 12:19:10;;;;;;;16.58;4.90;;;10.20;99.90;;;;;;5086947;28;20404;-84
2022/11/24 12:21:55;;;;;;;9.50;3.13;;;;;;;;;;5071199;28;20043;-84
2022/11/24 12:25:00;;;;;;;10.65;3.83;;;10.20;99.90;;;;;;5106944;28;20035;-84
2022/11/24 12:28:02;;;;;;;13.65;3.45;;;10.20;99.90;;;;;;5093180;28;20081;-87
2022/11/24 12:30:59;;;;;;;14.57;4.18;;;10.30;99.90;;;;;;5083784;28;20030;-85
2022/11/24 12:34:08;;;;;;;13.25;3.33;;;10.10;99.90;;;;;;5080307;28;20082;-84
2022/11/24 12:37:05;;;;;;;11.88;3.10;;;10.30;99.90;;;;;;5106205;28;20047;-84
2022/11/24 12:40:04;;;;;;;13.20;3.08;;;10.40;99.90;;;;;;5106347;28;20479;-84
2022/11/24 12:43:21;;;;;;;11.18;3.10;;;10.30;99.90;;;;;;5092934;28;20116;-85
2022/11/24 12:46:32;;;;;;;10.20;3.85;;;10.40;99.90;;;;;;5082622;28;20043;-84
2022/11/24 12:49:58;;;;;;;15.63;3.90;;;10.30;99.90;;;;;;5077871;28;20533;-84
2022/11/24 12:52:54;;;;;;;14.10;3.58;;;10.40;99.90;;;;;;5072534;28;20522;-84
2022/11/24 12:55:39;;;;;;;16.65;4.50;;;;;;;;;;5092881;28;20441;-84
2022/11/24 12:58:24;;;;;;;10.90;4.18;;;;;;;;;;5106262;28;20051;-84
2022/11/24 13:01:22;;;;;;;13.10;3.88;;;10.40;99.90;;;;;;5105898;28;20527;-84
2022/11/24 13:04:32;;;;;;;18.17;3.70;;;10.50;99.90;;;;;;5105714;28;20034;-85
2022/11/24 13:07:24;;;;;;;11.40;3.50;;;10.50;99.90;;;;;;5095356;28;20031;-84
2022/11/24 13:10:24;;;;;;;9.10;3.22;;;10.50;99.90;;;;;;5077152;28;20035;-84
2022/11/24 13:13:14;;;;;;;12.80;4.25;;;10.60;99.90;;;;;;5081689;28;20043;-84
2022/11/24 13:15:58;;;;;;;13.00;3.92;;;;;;;;;;5092191;28;20116;-85
2022/11/24 13:18:42;;;;;;;14.02;4.32;;;;;;;;;;5106284;28;20047;-84
2022/11/24 13:21:30;;;;;;;12.65;4.25;;;;;;;;;;5092693;28;20071;-84
2022/11/24 13:24:17;;;;;;;13.35;3.47;;;;;;;;;;5105734;28;20043;-84
2022/11/24 13:27:14;;;;;;;11.35;3.40;;;10.60;99.90;;;;;;5105648;28;20043;-84
2022/11/24 13:29:58;;;;;;;11.13;2.75;;;;;;;;;;5092181;28;20395;-84
2022/11/24 13:32:43;;;;;;;11.13;2.92;;;;;;;;;;5092755;28;20507;-84
2022/11/24 13:35:28;;;;;;;19.13;4.75;;;;;;;;;;5092587;28;20499;-84
2022/11/24 13:38:39;;;;;;;9.45;3.13;;;10.70;99.90;;;;;;5105438;28;20487;-84
2022/11/24 13:41:33;;;;;;;12.63;3.20;;;10.70;99.90;;;;;;5105809;28;20074;-82
2022/11/24 13:44:23;;;;;;;10.20;3.20;;;10.60;99.90;;;;;;5081898;28;20047;-82
2022/11/24 13:47:31;;;;;;;9.13;2.85;;;10.60;99.90;;;;;;5105443;28;20039;-82
2022/11/24 13:50:19;;;;;;;18.85;4.00;;;10.60;99.90;;;;;;5092044;28;20149;-82
2022/11/24 13:53:33;;;;;;;14.20;3.28;;;10.70;99.90;;;;;;5105509;28;20506;-82
2022/11/24 13:56:18;;;;;;;15.82;4.93;;;;;;;;;;5082574;28;20043;-82
2022/11/24 13:59:15;;;;;;;13.02;3.22;;;10.50;99.90;;;;;;5105228;28;20067;-82
2022/11/24 14:02:22;;;;;;;16.98;3.60;;;10.60;99.90;;;;;;5070530;28;20087;-82
2022/11/24 14:05:12;;;;;;;13.65;3.33;;;10.50;99.90;;;;;;5071688;28;20040;-81
2022/11/24 14:07:57;;;;;;;13.27;2.95;;;;;;;;;;5072219;28;20039;-82
2022/11/24 14:10:41;;;;;;;11.73;3.47;;;10.50;99.90;;;;;;5085192;28;20116;-82
2022/11/24 14:13:26;;;;;;;12.23;3.10;;;;;;;;;;5071262;28;20032;-82
2022/11/24 14:16:16;;;;;;;15.75;3.10;;;10.40;99.90;;;;;;5071851;28;20045;-82
2022/11/24 14:19:09;;;;;;;16.13;3.30;;;10.40;99.90;;;;;;5075365;28;20094;-83
2022/11/24 14:21:54;;;;;;;14.07;3.08;;;;;;;;;;5075988;28;20035;-82
2022/11/24 14:24:39;;;;;;;17.67;5.00;;;;;;;;;;5088901;28;20040;-82
2022/11/24 14:27:37;;;;;;;12.38;2.60;;;10.40;99.90;;;;;;5075297;28;20063;-82
2022/11/24 14:30:23;;;;;;;15.80;3.80;;;10.30;99.90;;;;;;5075183;28;20051;-82
2022/11/24 14:33:11;;;;;;;16.25;3.72;;;10.30;99.90;;;;;;5075033;28;20170;-83
2022/11/24 14:35:56;;;;;;;18.73;3.35;;;;;;;;;;5102981;28;20039;-82
2022/11/24 14:38:41;;;;;;;16.50;3.67;;;;;;;;;;5103246;28;20098;-82
2022/11/24 14:41:27;;;;;;;14.40;3.55;;;;;;;;;;5074875;28;20039;-83
2022/11/24 14:44:30;;;;;;;15.48;3.95;;;10.10;99.90;;;;;;5075055;28;20039;-83
2022/11/24 14:47:26;;;;;;;15.48;3.75;;;10.10;99.90;;;;;;5073955;28;20028;-82
2022/11/24 14:50:14;;;;;;;12.32;3.17;;;10.00;99.90;;;;;;5074861;28;20538;-82
2022/11/24 14:52:59;;;;;;;11.15;3.45;;;9.90;99.90;;;;;;5074317;28;20044;-84
2022/11/24 14:55:44;;;;;;;15.95;3.65;;;;;;;;;;5074356;28;20067;-85
2022/11/24 14:58:33;;;;;;;14.43;4.55;;;9.80;99.90;;;;;;5073514;28;20515;-85
2022/11/24 15:01:27;;;;;;;13.57;3.70;;;9.80;99.90;;;;;;5085975;28;20081;-85
2022/11/24 15:04:12;;;;;;;16.13;4.55;;;;;;;;;;5094990;28;20073;-85
2022/11/24 15:07:04;;;;;;;13.98;3.88;;;9.70;99.90;;;;;;5108589;28;20051;-85
2022/11/24 15:10:03;;;;;;;17.83;3.90;;;9.70;99.90;;;;;;5108633;28;20085;-85
2022/11/24 15:12:52;;;;;;;13.70;4.70;;;9.60;99.90;;;;;;5081586;28;20058;-82
2022/11/24 15:15:38;;;;;;;11.77;4.43;;;9.50;99.90;;;;;;5095220;28;20043;-82
2022/11/24 15:18:30;;;;;;;16.20;3.63;;;10.30;99.90;;;;;;5094607;28;20399;-82
2022/11/24 15:21:15;;;;;;;15.25;3.70;;;;;;;;;;5109805;28;20043;-84
2022/11/24 15:24:18;;;;;;;14.52;4.18;;;9.20;99.90;;;;;;5108178;28;20089;-84
2022/11/24 15:27:03;;;;;;;19.73;4.75;;;;;;;;;;5082102;28;20039;-84
2022/11/24 15:29:48;;;;;;;17.70;4.53;;;;;;;;;;5108133;28;20047;-84
2022/11/24 15:32:32;;;;;;;15.40;4.22;;;;;;;;;;5107759;28;20112;-84
2022/11/24 15:35:17;;;;;;;16.48;4.22;;;;;;;;;;5107363;28;20511;-84
2022/11/24 15:38:01;;;;;;;16.15;3.85;;;;;;;;;;5094658;28;20047;-84
2022/11/24 15:40:48;;;;;;;12.07;4.35;;;9.00;99.90;;;;;;5093581;28;20058;-84
2022/11/24 15:43:32;;;;;;;13.52;4.30;;;;;;;;;;5078760;28;20068;-83
2022/11/24 15:46:17;;;;;;;13.82;3.58;;;;;;;;;;5107534;28;20086;-84